Time;durP1;ratioP1;P1;durP2;ratioP2;P2;SDS_P1;SDS_P2;PMS_P1;PMS_P2;Temp;Humidity;BMP_temperature;BMP_pressure;BME280_temperature;BME280_humidity;BME280_pressure;Samples;Min_cycle;Max_cycle;Signal;HPM_P1;HPM_P2
2023/08/24 13:42:45;;;;;;;8.07;4.85;;;;;;;;;;4967066;28;20511;-84
2023/08/24 13:45:10;;;;;;;8.82;4.47;;;;;;;;;;4820044;28;2162704;-83
2023/08/24 13:51:44;;;;;;;7.93;4.15;;;;;;;;;;4301997;27;19633427;-85
2023/08/24 13:54:09;;;;;;;;;;;;;;;;;;5064361;28;20073;-82
2023/08/24 13:56:34;;;;;;;10.98;4.53;;;;;;;;;;5071880;28;20010;-83
2023/08/24 13:58:59;;;;;;;9.43;5.53;;;;;;;;;;5058454;28;20066;-81
2023/08/24 14:01:25;;;;;;;9.30;4.37;;;;;;;;;;5067904;28;20536;-79
2023/08/24 14:03:50;;;;;;;9.60;4.43;;;;;;;;;;5103211;28;20509;-82
2023/08/24 14:06:15;;;;;;;10.97;4.57;;;;;;;;;;5095133;28;20060;-81
2023/08/24 14:08:41;;;;;;;11.10;4.90;;;;;;;;;;5107692;28;20759;-82
2023/08/24 14:11:11;;;;;;;10.50;4.93;;;;;;;;;;5090196;28;20038;-82
2023/08/24 14:13:36;;;;;;;10.00;4.60;;;;;;;;;;5075115;28;20093;-83
2023/08/24 14:16:02;;;;;;;8.02;3.92;;;;;;;;;;5091067;28;20041;-80
2023/08/24 14:18:28;;;;;;;11.43;4.50;;;;;;;;;;5092062;28;20036;-81
2023/08/24 14:21:10;;;;;;;10.55;4.22;;;;;;;;;;5094958;28;20041;-84
2023/08/24 14:23:35;;;;;;;10.70;3.63;;;;;;;;;;5080231;28;20045;-81
2023/08/24 14:26:03;;;;;;;8.77;4.47;;;;;;;;;;5079855;28;20109;-81
2023/08/24 14:28:46;;;;;;;7.70;3.83;;;;;;;;;;5095593;28;20058;-83
2023/08/24 14:31:12;;;;;;;9.63;4.15;;;;;;;;;;5098167;28;20088;-83
2023/08/24 14:33:37;;;;;;;8.87;3.60;;;;;;;;;;5079252;28;20040;-84
2023/08/24 14:36:02;;;;;;;8.33;3.77;;;;;;;;;;5089402;28;20103;-79
2023/08/24 14:38:27;;;;;;;7.70;3.97;;;;;;;;;;5077221;28;20494;-82
2023/08/24 14:40:53;;;;;;;9.27;3.87;;;;;;;;;;5106757;28;20450;-82
2023/08/24 14:43:18;;;;;;;9.03;4.90;;;;;;;;;;5073597;28;20150;-82
2023/08/24 14:45:43;;;;;;;8.83;4.00;;;;;;;;;;5089704;28;20134;-83
2023/08/24 14:48:08;;;;;;;10.30;4.40;;;;;;;;;;5070852;28;20041;-82
2023/08/24 14:50:37;;;;;;;9.43;3.87;;;;;;;;;;5067992;28;20036;-83
2023/08/24 14:53:02;;;;;;;7.47;3.55;;;;;;;;;;5050795;28;20172;-83
2023/08/24 14:55:27;;;;;;;7.63;3.53;;;;;;;;;;5082366;28;20106;-83
2023/08/24 14:57:53;;;;;;;7.40;3.93;;;;;;;;;;5097021;28;20047;-81
2023/08/24 15:00:18;;;;;;;8.45;3.50;;;;;;;;;;5080504;28;20595;-82
2023/08/24 15:02:43;;;;;;;7.45;3.70;;;;;;;;;;5048312;28;20037;-82
2023/08/24 15:05:10;;;;;;;10.03;4.20;;;;;;;;;;5091446;28;20036;-84
2023/08/24 15:07:36;;;;;;;7.78;3.30;;;;;;;;;;5055884;28;20153;-82
2023/08/24 15:10:02;;;;;;;7.25;3.38;;;;;;;;;;5059402;28;20158;-83
2023/08/24 15:12:28;;;;;;;7.47;3.60;;;;;;;;;;5072736;28;20076;-81
2023/08/24 15:15:00;;;;;;;7.13;3.85;;;;;;;;;;5072037;28;20145;-84
2023/08/24 15:17:26;;;;;;;9.40;3.92;;;;;;;;;;5068122;28;20045;-81
2023/08/24 15:19:51;;;;;;;7.45;3.67;;;;;;;;;;5069457;28;20105;-83
2023/08/24 15:22:17;;;;;;;8.00;3.53;;;;;;;;;;5076528;28;20048;-83
2023/08/24 15:24:42;;;;;;;7.50;3.73;;;;;;;;;;5075890;28;20131;-83
2023/08/24 15:27:07;;;;;;;9.40;3.88;;;;;;;;;;5068668;28;20575;-82
2023/08/24 15:29:33;;;;;;;7.97;3.70;;;;;;;;;;5075605;28;20050;-83
2023/08/24 15:31:58;;;;;;;6.60;3.43;;;;;;;;;;5080635;28;20074;-82
2023/08/24 15:34:26;;;;;;;7.77;3.60;;;;;;;;;;5084187;28;20618;-83
2023/08/24 15:36:57;;;;;;;7.32;3.17;;;;;;;;;;5085878;28;20037;-83
2023/08/24 15:39:25;;;;;;;7.70;3.50;;;;;;;;;;5070582;28;20039;-83
2023/08/24 15:41:56;;;;;;;6.20;3.00;;;;;;;;;;5060213;28;20052;-82
2023/08/24 15:44:21;;;;;;;7.65;3.38;;;;;;;;;;5027704;28;20049;-82
2023/08/24 15:46:47;;;;;;;8.03;3.40;;;;;;;;;;5073200;28;20599;-82
2023/08/24 15:49:12;;;;;;;8.52;4.10;;;;;;;;;;5089719;28;20492;-81
2023/08/24 15:51:37;;;;;;;7.93;2.92;;;;;;;;;;5071282;28;20037;-82
2023/08/24 15:54:02;;;;;;;8.17;3.53;;;;;;;;;;5099432;28;20028;-82
2023/08/24 15:56:36;;;;;;;7.70;3.78;;;;;;;;;;5060839;28;21159;-81
2023/08/24 16:02:04;;;;;;;6.90;3.28;;;;;;;;;;5078592;28;20047;-82
2023/08/24 16:04:29;;;;;;;7.90;3.10;;;;;;;;;;5040436;28;20032;-82
2023/08/24 16:06:57;;;;;;;6.22;3.15;;;;;;;;;;5071265;28;20529;-82
2023/08/24 16:09:25;;;;;;;5.85;3.00;;;;;;;;;;5078139;28;20033;-84
2023/08/24 16:11:53;;;;;;;6.55;3.65;;;;;;;;;;5069831;28;20038;-82
2023/08/24 16:14:18;;;;;;;7.15;3.30;;;;;;;;;;5064647;28;20032;-84
2023/08/24 16:16:46;;;;;;;8.88;3.72;;;;;;;;;;5075225;28;20039;-82
2023/08/24 16:21:55;;;;;;;5.13;2.42;;;;;;;;;;5048869;28;20072;-82
2023/08/24 16:24:20;;;;;;;6.73;2.90;;;;;;;;;;5045079;28;20043;-83
2023/08/24 16:26:46;;;;;;;8.57;3.40;;;;;;;;;;5035876;28;20557;-83
2023/08/24 16:29:11;;;;;;;6.73;3.10;;;;;;;;;;5033980;28;20033;-83
2023/08/24 16:31:37;;;;;;;7.45;3.53;;;;;;;;;;5047835;28;20124;-82
2023/08/24 16:34:03;;;;;;;9.70;3.40;;;;;;;;;;5042178;28;20035;-82
2023/08/24 16:36:28;;;;;;;6.70;3.30;;;;;;;;;;5041573;28;20506;-83
2023/08/24 16:38:53;;;;;;;5.97;3.22;;;;;;;;;;5042613;28;20044;-82
2023/08/24 16:41:19;;;;;;;6.57;2.80;;;;;;;;;;5046781;28;20065;-82
2023/08/24 16:43:44;;;;;;;7.00;3.37;;;;;;;;;;5036025;28;20451;-82
2023/08/24 16:46:09;;;;;;;6.13;2.80;;;;;;;;;;5045289;28;20571;-83
2023/08/24 16:48:34;;;;;;;7.20;2.90;;;;;;;;;;5040216;28;20049;-82
2023/08/24 16:50:59;;;;;;;8.90;3.10;;;;;;;;;;5041348;28;20041;-82
2023/08/24 16:53:25;;;;;;;8.30;3.27;;;;;;;;;;5040057;28;20050;-82
2023/08/24 16:55:51;;;;;;;6.82;3.20;;;;;;;;;;5041801;28;20036;-83
2023/08/24 16:58:16;;;;;;;6.57;3.00;;;;;;;;;;5040420;28;20085;-82
2023/08/24 17:00:42;;;;;;;8.63;3.45;;;;;;;;;;5036907;28;20079;-82
2023/08/24 17:03:07;;;;;;;5.70;2.73;;;;;;;;;;5037550;28;20140;-83
2023/08/24 17:05:32;;;;;;;7.40;2.87;;;;;;;;;;5038800;28;20489;-83
2023/08/24 17:08:08;;;;;;;6.00;2.67;;;;;;;;;;5036776;28;20626;-82
2023/08/24 17:10:33;;;;;;;7.65;3.38;;;;;;;;;;5039134;28;20037;-82
2023/08/24 17:12:59;;;;;;;6.47;2.72;;;;;;;;;;5045314;28;20024;-82
2023/08/24 17:15:24;;;;;;;5.78;2.90;;;;;;;;;;5042612;28;20033;-82
2023/08/24 17:17:50;;;;;;;7.45;3.50;;;;;;;;;;5048521;28;20037;-83
2023/08/24 17:20:15;;;;;;;5.73;3.10;;;;;;;;;;5047720;28;20102;-83
2023/08/24 17:22:41;;;;;;;6.68;3.13;;;;;;;;;;5034251;28;20451;-83
2023/08/24 17:25:07;;;;;;;6.32;2.60;;;;;;;;;;5048354;28;20616;-82
2023/08/24 17:27:32;;;;;;;7.90;3.55;;;;;;;;;;5042185;28;20135;-83
2023/08/24 17:29:57;;;;;;;5.80;2.73;;;;;;;;;;5049872;28;20046;-83
2023/08/24 17:32:26;;;;;;;5.40;2.42;;;;;;;;;;5050204;28;20062;-83
2023/08/24 17:34:52;;;;;;;7.50;2.85;;;;;;;;;;5051900;28;20076;-83
2023/08/24 17:37:17;;;;;;;5.45;2.78;;;;;;;;;;5049176;28;20033;-83
2023/08/24 17:39:42;;;;;;;5.50;2.30;;;;;;;;;;5048882;28;20047;-83
2023/08/24 17:42:07;;;;;;;5.20;2.63;;;;;;;;;;5049420;28;20050;-83
2023/08/24 17:44:33;;;;;;;5.87;2.63;;;;;;;;;;5048113;28;20559;-82
2023/08/24 17:46:59;;;;;;;5.32;2.67;;;;;;;;;;5048051;28;20414;-83
2023/08/24 17:49:24;;;;;;;5.57;2.65;;;;;;;;;;5040801;28;20042;-82
2023/08/24 17:51:49;;;;;;;5.83;2.60;;;;;;;;;;5048202;28;20037;-83
2023/08/24 17:54:15;;;;;;;4.73;2.03;;;;;;;;;;5047718;28;20029;-83
2023/08/24 17:56:40;;;;;;;6.57;3.00;;;;;;;;;;5048165;28;20033;-83
2023/08/24 17:59:05;;;;;;;7.17;2.63;;;;;;;;;;5049108;28;20036;-83
2023/08/24 18:01:31;;;;;;;5.43;2.80;;;;;;;;;;5049192;28;20033;-82
2023/08/24 18:03:56;;;;;;;5.93;2.53;;;;;;;;;;5049419;28;20032;-84
2023/08/24 18:06:21;;;;;;;7.80;3.10;;;;;;;;;;5049454;28;20048;-83
2023/08/24 18:08:46;;;;;;;6.43;2.47;;;;;;;;;;5048903;28;20042;-82
2023/08/24 18:11:11;;;;;;;5.73;2.57;;;;;;;;;;5035869;28;20037;-84
2023/08/24 18:13:37;;;;;;;5.67;2.70;;;;;;;;;;5039758;28;20054;-83
2023/08/24 18:16:02;;;;;;;5.57;2.37;;;;;;;;;;5046604;28;20067;-83
2023/08/24 18:18:27;;;;;;;5.32;2.38;;;;;;;;;;5031282;28;20078;-83
2023/08/24 18:20:52;;;;;;;5.57;2.37;;;;;;;;;;5037217;28;20544;-82
2023/08/24 18:23:40;;;;;;;5.50;2.50;;;;;;;;;;5037570;28;20046;-83
2023/08/24 18:26:05;;;;;;;5.55;2.70;;;;;;;;;;5041241;28;20038;-83
2023/08/24 18:28:31;;;;;;;5.07;2.53;;;;;;;;;;5048143;28;20079;-83
2023/08/24 18:30:57;;;;;;;5.63;2.55;;;;;;;;;;5048551;28;20128;-83
2023/08/24 18:33:22;;;;;;;4.85;2.35;;;;;;;;;;5040767;28;20716;-83
2023/08/24 18:35:50;;;;;;;5.05;2.55;;;;;;;;;;5037146;28;20434;-84
2023/08/24 18:38:15;;;;;;;5.75;2.40;;;;;;;;;;5040214;28;20559;-82
2023/08/24 18:40:41;;;;;;;5.00;2.00;;;;;;;;;;5045776;28;20067;-83
2023/08/24 18:43:06;;;;;;;4.47;1.98;;;;;;;;;;5053977;28;20068;-83
2023/08/24 18:45:31;;;;;;;5.60;2.60;;;;;;;;;;5044062;28;20093;-82
2023/08/24 18:47:56;;;;;;;5.73;2.47;;;;;;;;;;5042156;28;20037;-82
2023/08/24 18:50:22;;;;;;;6.00;2.57;;;;;;;;;;5049455;28;20033;-83
2023/08/24 18:52:47;;;;;;;5.40;2.63;;;;;;;;;;5047097;28;20176;-84
2023/08/24 18:55:12;;;;;;;5.57;2.43;;;;;;;;;;5044796;28;20127;-83
2023/08/24 18:57:37;;;;;;;5.93;2.60;;;;;;;;;;5043705;28;20035;-83
2023/08/24 19:00:03;;;;;;;6.40;2.43;;;;;;;;;;5044200;28;20043;-83
2023/08/24 19:02:28;;;;;;;6.07;1.88;;;;;;;;;;5048589;28;20093;-81
2023/08/24 19:04:53;;;;;;;5.57;2.43;;;;;;;;;;4990764;28;20063;-82
2023/08/24 19:07:19;;;;;;;5.50;2.37;;;;;;;;;;5017164;28;20037;-82
2023/08/24 19:09:44;;;;;;;5.60;2.53;;;;;;;;;;4998966;28;89538;-83
2023/08/24 19:12:09;;;;;;;4.80;2.58;;;;;;;;;;4963000;28;20074;-82
2023/08/24 19:14:35;;;;;;;5.88;2.15;;;;;;;;;;4999628;28;20149;-82
2023/08/24 19:17:01;;;;;;;4.57;2.17;;;;;;;;;;5048914;28;20061;-82
2023/08/24 19:19:27;;;;;;;6.00;2.70;;;;;;;;;;5041370;28;20636;-83
2023/08/24 19:21:52;;;;;;;5.07;2.27;;;;;;;;;;5037942;28;20041;-82
2023/08/24 19:24:17;;;;;;;5.13;2.20;;;;;;;;;;5056337;28;20438;-82
2023/08/24 19:26:43;;;;;;;5.70;2.50;;;;;;;;;;5049769;28;20480;-83
2023/08/24 19:29:08;;;;;;;5.37;2.27;;;;;;;;;;5055196;28;20535;-82
2023/08/24 19:31:33;;;;;;;4.63;2.10;;;;;;;;;;5040435;28;20644;-82
2023/08/24 19:33:59;;;;;;;5.60;2.15;;;;;;;;;;5058899;28;20055;-82
2023/08/24 19:36:24;;;;;;;7.03;2.57;;;;;;;;;;5058238;28;20054;-83
2023/08/24 19:38:51;;;;;;;6.83;2.47;;;;;;;;;;5054727;28;20523;-82
2023/08/24 19:41:17;;;;;;;5.50;2.20;;;;;;;;;;5038047;28;20072;-82
2023/08/24 19:43:42;;;;;;;5.20;2.50;;;;;;;;;;5040408;28;20040;-82
2023/08/24 19:46:07;;;;;;;5.43;2.03;;;;;;;;;;5039922;28;20471;-83
2023/08/24 19:48:32;;;;;;;6.23;2.37;;;;;;;;;;5044824;28;20373;-83
2023/08/24 19:50:58;;;;;;;7.07;2.53;;;;;;;;;;5049471;28;20118;-83
2023/08/24 19:53:26;;;;;;;5.20;2.42;;;;;;;;;;5036501;28;20608;-83
2023/08/24 19:55:53;;;;;;;5.57;2.30;;;;;;;;;;5032338;28;20034;-83
2023/08/24 19:58:18;;;;;;;6.35;2.13;;;;;;;;;;5047432;28;20035;-83
2023/08/24 20:00:43;;;;;;;5.03;2.03;;;;;;;;;;5041512;28;20066;-83
2023/08/24 20:03:11;;;;;;;6.93;2.13;;;;;;;;;;5049492;28;20641;-82
2023/08/24 20:05:36;;;;;;;4.50;2.15;;;;;;;;;;5036318;28;21210;-82
2023/08/24 20:08:01;;;;;;;4.27;2.10;;;;;;;;;;5050345;28;20032;-83
2023/08/24 20:10:26;;;;;;;6.07;2.60;;;;;;;;;;5048155;28;20443;-82
2023/08/24 20:12:52;;;;;;;5.53;2.53;;;;;;;;;;5046193;28;20501;-82
2023/08/24 20:15:17;;;;;;;5.73;2.40;;;;;;;;;;5045047;28;20530;-83
2023/08/24 20:17:43;;;;;;;4.10;1.83;;;;;;;;;;5042539;28;20118;-82
2023/08/24 20:20:15;;;;;;;5.10;2.30;;;;;;;;;;5044835;28;20505;-82
2023/08/24 20:22:47;;;;;;;5.40;2.33;;;;;;;;;;5031080;28;20581;-82
2023/08/24 20:25:13;;;;;;;5.40;2.45;;;;;;;;;;5031924;28;20066;-82
2023/08/24 20:27:38;;;;;;;4.75;2.00;;;;;;;;;;5030564;28;20072;-82
2023/08/24 20:30:05;;;;;;;5.22;1.83;;;;;;;;;;5028990;28;20541;-82
2023/08/24 20:32:30;;;;;;;5.32;2.13;;;;;;;;;;5030354;28;20037;-83
2023/08/24 20:34:58;;;;;;;6.05;2.40;;;;;;;;;;5043301;28;20102;-84
2023/08/24 20:37:24;;;;;;;5.80;2.15;;;;;;;;;;5030524;28;20438;-83
2023/08/24 20:39:49;;;;;;;5.30;1.90;;;;;;;;;;5030217;28;20037;-83
2023/08/24 20:42:15;;;;;;;5.82;2.22;;;;;;;;;;5030301;28;20046;-82
2023/08/24 20:44:42;;;;;;;5.68;2.35;;;;;;;;;;5030242;28;20045;-83
2023/08/24 20:47:07;;;;;;;5.80;2.05;;;;;;;;;;5030076;28;20029;-82
2023/08/24 20:49:32;;;;;;;4.77;2.20;;;;;;;;;;5029534;28;20070;-82
2023/08/24 20:51:58;;;;;;;4.50;1.97;;;;;;;;;;5030177;28;20059;-82
2023/08/24 20:54:23;;;;;;;5.47;1.85;;;;;;;;;;5045636;28;20033;-82
2023/08/24 20:56:48;;;;;;;5.00;2.10;;;;;;;;;;5035145;28;20041;-83
2023/08/24 20:59:14;;;;;;;5.25;2.08;;;;;;;;;;5040600;28;20563;-83
2023/08/24 21:01:39;;;;;;;6.20;2.27;;;;;;;;;;5034727;28;20075;-82
2023/08/24 21:04:04;;;;;;;4.70;2.27;;;;;;;;;;5037226;28;20119;-82
2023/08/24 21:06:29;;;;;;;6.20;2.13;;;;;;;;;;5030591;28;20123;-83
2023/08/24 21:08:55;;;;;;;5.23;2.20;;;;;;;;;;5044827;28;20467;-82
2023/08/24 21:11:20;;;;;;;7.03;2.23;;;;;;;;;;5030015;28;20042;-83
2023/08/24 21:13:45;;;;;;;4.77;2.30;;;;;;;;;;5030436;28;20033;-83
2023/08/24 21:16:10;;;;;;;4.77;1.83;;;;;;;;;;5040456;28;20484;-81
2023/08/24 21:18:35;;;;;;;4.40;1.73;;;;;;;;;;5040031;28;20046;-83
2023/08/24 21:21:01;;;;;;;4.87;2.13;;;;;;;;;;5037716;28;20055;-82
2023/08/24 21:23:26;;;;;;;4.55;1.77;;;;;;;;;;5038663;28;20536;-82
2023/08/24 21:25:52;;;;;;;4.60;2.20;;;;;;;;;;5040147;28;20041;-82
2023/08/24 21:28:17;;;;;;;4.85;1.92;;;;;;;;;;5034775;28;20067;-82
2023/08/24 21:30:42;;;;;;;4.60;2.00;;;;;;;;;;5039587;28;20050;-83
2023/08/24 21:33:07;;;;;;;4.57;2.03;;;;;;;;;;5038488;28;20502;-83
2023/08/24 21:35:33;;;;;;;4.50;1.70;;;;;;;;;;5037326;28;20132;-83
2023/08/24 21:38:01;;;;;;;4.93;2.33;;;;;;;;;;5042067;28;20946;-83
2023/08/24 21:40:26;;;;;;;6.25;1.92;;;;;;;;;;5033958;28;20637;-84
2023/08/24 21:42:52;;;;;;;5.90;2.03;;;;;;;;;;5041564;28;20054;-83
2023/08/24 21:45:19;;;;;;;5.07;2.35;;;;;;;;;;5042333;28;20029;-83
2023/08/24 21:47:45;;;;;;;4.65;2.17;;;;;;;;;;5039822;28;20536;-83
2023/08/24 21:50:10;;;;;;;4.88;1.88;;;;;;;;;;5041260;28;20053;-83
2023/08/24 21:52:35;;;;;;;5.28;2.10;;;;;;;;;;5041422;28;20048;-82
2023/08/24 21:55:06;;;;;;;4.70;1.67;;;;;;;;;;5049666;28;20037;-83
2023/08/24 21:57:31;;;;;;;4.75;1.92;;;;;;;;;;5040436;28;20028;-83
2023/08/24 21:59:56;;;;;;;5.57;2.03;;;;;;;;;;5042465;28;20044;-83
2023/08/24 22:02:22;;;;;;;4.67;2.00;;;;;;;;;;5039227;28;20033;-82
2023/08/24 22:04:47;;;;;;;4.63;1.93;;;;;;;;;;5037131;28;21109;-83
2023/08/24 22:07:12;;;;;;;4.82;1.90;;;;;;;;;;5041154;28;20052;-83
2023/08/24 22:09:39;;;;;;;5.07;1.83;;;;;;;;;;5037368;28;20132;-83
2023/08/24 22:12:04;;;;;;;4.95;1.95;;;;;;;;;;5039656;28;20029;-82
2023/08/24 22:14:30;;;;;;;4.88;2.08;;;;;;;;;;5045798;28;20046;-83
2023/08/24 22:16:55;;;;;;;5.00;2.10;;;;;;;;;;5044950;28;20041;-83
2023/08/24 22:19:20;;;;;;;5.15;1.70;;;;;;;;;;5033845;28;20044;-82
2023/08/24 22:21:45;;;;;;;4.77;1.70;;;;;;;;;;5034531;28;20052;-82
2023/08/24 22:24:11;;;;;;;5.40;2.13;;;;;;;;;;5034853;28;20042;-82
2023/08/24 22:26:36;;;;;;;5.93;2.13;;;;;;;;;;5035706;28;20135;-82
2023/08/24 22:29:02;;;;;;;4.60;1.87;;;;;;;;;;5034539;28;20042;-82
2023/08/24 22:31:28;;;;;;;6.35;2.17;;;;;;;;;;5034443;28;20038;-82
2023/08/24 22:33:53;;;;;;;4.70;1.90;;;;;;;;;;5049922;28;20040;-82
2023/08/24 22:36:19;;;;;;;5.30;1.60;;;;;;;;;;5034181;28;20103;-82
2023/08/24 22:38:44;;;;;;;5.10;1.57;;;;;;;;;;5034614;28;20081;-82
2023/08/24 22:41:10;;;;;;;4.78;1.70;;;;;;;;;;5050063;28;20032;-82
2023/08/24 22:43:35;;;;;;;4.63;1.77;;;;;;;;;;5054781;28;20045;-82
2023/08/24 22:46:01;;;;;;;4.97;2.07;;;;;;;;;;5055706;28;20098;-82
2023/08/24 22:48:27;;;;;;;4.68;1.98;;;;;;;;;;5053470;28;20041;-82
2023/08/24 22:50:52;;;;;;;4.95;1.90;;;;;;;;;;5044867;28;20539;-82
2023/08/24 22:53:19;;;;;;;4.35;2.00;;;;;;;;;;5035848;28;20037;-82
2023/08/24 22:55:46;;;;;;;4.25;1.77;;;;;;;;;;5053264;28;20040;-82
2023/08/24 22:58:11;;;;;;;5.20;1.67;;;;;;;;;;5053835;28;20032;-82
2023/08/24 23:00:39;;;;;;;5.97;1.53;;;;;;;;;;5054441;28;20037;-82
2023/08/24 23:03:04;;;;;;;5.03;1.80;;;;;;;;;;5050339;28;20554;-82
2023/08/24 23:05:31;;;;;;;4.78;2.20;;;;;;;;;;5035567;28;20037;-82
2023/08/24 23:07:56;;;;;;;4.75;1.90;;;;;;;;;;5058134;28;20028;-83
2023/08/24 23:10:23;;;;;;;4.27;1.80;;;;;;;;;;5073614;28;20049;-82
2023/08/24 23:12:48;;;;;;;5.40;1.92;;;;;;;;;;5064472;28;20038;-82
2023/08/24 23:15:13;;;;;;;5.43;2.33;;;;;;;;;;5068584;28;20037;-82
2023/08/24 23:17:39;;;;;;;5.37;2.00;;;;;;;;;;5061017;28;20045;-82
2023/08/24 23:20:07;;;;;;;5.05;2.00;;;;;;;;;;5056190;28;20605;-82
2023/08/24 23:22:32;;;;;;;4.72;2.03;;;;;;;;;;5063896;28;20629;-82
2023/08/24 23:24:57;;;;;;;5.15;1.95;;;;;;;;;;5056616;28;20050;-82
2023/08/24 23:27:23;;;;;;;4.47;1.87;;;;;;;;;;5063774;28;20028;-82
2023/08/24 23:29:48;;;;;;;5.38;1.90;;;;;;;;;;5059712;28;20061;-82
2023/08/24 23:32:13;;;;;;;4.30;1.67;;;;;;;;;;5052203;28;20041;-82
2023/08/24 23:34:39;;;;;;;6.17;1.87;;;;;;;;;;5053150;28;20033;-82
2023/08/24 23:37:05;;;;;;;4.60;1.73;;;;;;;;;;5044877;28;20063;-82
2023/08/24 23:39:30;;;;;;;5.32;1.90;;;;;;;;;;5053057;28;20033;-84
2023/08/24 23:41:56;;;;;;;4.40;1.90;;;;;;;;;;5053188;28;20060;-83
2023/08/24 23:44:24;;;;;;;4.63;1.80;;;;;;;;;;5053474;28;20029;-83
2023/08/24 23:46:54;;;;;;;4.88;1.77;;;;;;;;;;5042652;28;20044;-83
2023/08/24 23:49:21;;;;;;;4.00;1.52;;;;;;;;;;5052918;28;20040;-83
2023/08/24 23:51:47;;;;;;;5.13;1.90;;;;;;;;;;5059176;28;20037;-83
2023/08/24 23:54:12;;;;;;;4.18;1.77;;;;;;;;;;5051811;28;20028;-83
2023/08/24 23:56:45;;;;;;;4.20;1.70;;;;;;;;;;5053417;28;20049;-83
2023/08/24 23:59:19;;;;;;;4.47;1.73;;;;;;;;;;5049109;28;20025;-83
